Time;durP1;ratioP1;P1;durP2;ratioP2;P2;SDS_P1;SDS_P2;PMS_P1;PMS_P2;Temp;Humidity;BMP_temperature;BMP_pressure;BME280_temperature;BME280_humidity;BME280_pressure;Samples;Min_cycle;Max_cycle;Signal;HPM_P1;HPM_P2
2022/05/15 00:00:41;;;;;;;15.23;10.28;;;;;;;;;;4315106;80;28536;-81
2022/05/15 00:06:42;;;;;;;13.80;9.73;;;;;;;;;;4325308;81;28547;-81
2022/05/15 00:12:43;;;;;;;12.75;9.13;;;;;;;;;;4341122;79;28522;-81
2022/05/15 00:18:43;;;;;;;15.88;8.95;;;;;;;;;;4358548;79;28499;-82
2022/05/15 00:24:44;;;;;;;12.90;8.75;;;;;;;;;;4326274;79;28475;-81
2022/05/15 00:30:46;;;;;;;13.38;9.83;;;;;;;;;;4343109;79;28547;-81
2022/05/15 00:36:46;;;;;;;17.65;9.68;;;;;;;;;;4382063;79;28577;-81
2022/05/15 00:42:48;;;;;;;15.10;9.95;;;;;;;;;;4329510;79;28521;-82
2022/05/15 00:48:50;;;;;;;12.75;9.50;;;;;;;;;;4338640;79;28909;-81
2022/05/15 00:54:53;;;;;;;15.32;9.93;;;;;;;;;;4341312;79;28504;-81
2022/05/15 01:00:54;;;;;;;13.40;8.68;;;;;;;;;;4342511;80;28520;-81
2022/05/15 01:06:55;;;;;;;13.15;8.00;;;;;;;;;;4336507;79;28485;-81
2022/05/15 01:12:58;;;;;;;14.45;9.20;;;;;;;;;;4386840;79;28520;-81
2022/05/15 01:19:00;;;;;;;14.75;9.08;;;;;;;;;;4354740;80;28567;-81
2022/05/15 01:25:02;;;;;;;15.25;10.08;;;;;;;;;;4388707;79;28525;-82
2022/05/15 01:31:03;;;;;;;18.45;10.58;;;;;;;;;;4411448;80;28626;-81
2022/05/15 01:37:05;;;;;;;14.55;9.30;;;;;;;;;;4400533;80;28502;-81
2022/05/15 01:43:08;;;;;;;13.55;8.03;;;;;;;;;;4403094;79;28529;-81
2022/05/15 01:49:09;;;;;;;14.80;9.53;;;;;;;;;;4399382;79;28559;-81
2022/05/15 01:55:11;;;;;;;18.10;11.18;;;;;;;;;;4402064;80;28583;-81
2022/05/15 02:01:14;;;;;;;19.07;11.85;;;;;;;;;;4426170;79;28462;-80
2022/05/15 02:07:15;;;;;;;17.70;11.88;;;;;;;;;;4424073;79;28500;-79
2022/05/15 02:13:16;;;;;;;18.48;12.88;;;;;;;;;;4346772;80;28540;-80
2022/05/15 02:19:18;;;;;;;16.35;11.38;;;;;;;;;;4342940;80;28491;-79
2022/05/15 02:25:19;;;;;;;15.93;10.93;;;;;;;;;;4374072;80;28600;-80
2022/05/15 02:31:20;;;;;;;18.40;11.38;;;;;;;;;;4348403;80;28560;-81
2022/05/15 02:37:21;;;;;;;20.17;12.03;;;;;;;;;;4257707;80;28541;-81
2022/05/15 02:43:23;;;;;;;18.23;12.43;;;;;;;;;;4363516;79;28622;-82
2022/05/15 02:55:44;;;;;;;17.73;12.37;;;;;;;;;;4320312;80;28538;-82
2022/05/15 03:01:44;;;;;;;17.80;11.68;;;;;;;;;;4362169;80;28517;-82
2022/05/15 03:07:59;;;;;;;16.02;11.43;;;;;;;;;;4321417;80;28460;-81
2022/05/15 03:13:55;;;;;;;17.87;12.28;;;;;;;;;;4254679;81;28493;-83
2022/05/15 03:19:56;;;;;;;18.65;13.50;;;;;;;;;;4257299;82;28587;-83
2022/05/15 03:25:57;;;;;;;19.50;13.50;;;;;;;;;;4242412;82;28560;-83
2022/05/15 03:31:58;;;;;;;20.17;13.85;;;;;;;;;;4251283;82;28562;-83
2022/05/15 03:37:59;;;;;;;19.05;12.70;;;;;;;;;;4266497;82;28527;-81
2022/05/15 03:44:03;;;;;;;17.73;12.90;;;;;;;;;;4231609;82;28507;-83
2022/05/15 03:50:07;;;;;;;20.35;13.18;;;;;;;;;;4328919;80;28524;-83
2022/05/15 03:56:08;;;;;;;19.62;13.38;;;;;;;;;;4311076;80;28504;-82
2022/05/15 04:02:10;;;;;;;26.52;14.25;;;;;;;;;;4309928;80;28543;-81
2022/05/15 04:08:10;;;;;;;21.35;13.88;;;;;;;;;;4311788;80;28527;-82
2022/05/15 04:14:11;;;;;;;20.12;13.90;;;;;;;;;;4343318;80;28599;-82
2022/05/15 04:20:13;;;;;;;21.48;14.33;;;;;;;;;;4337750;79;28508;-83
2022/05/15 04:26:15;;;;;;;19.42;12.47;;;;;;;;;;4334975;80;28481;-83
2022/05/15 04:32:16;;;;;;;19.55;12.05;;;;;;;;;;4334343;79;28595;-82
2022/05/15 04:38:19;;;;;;;22.60;13.80;;;;;;;;;;4339790;79;28505;-82
2022/05/15 04:44:19;;;;;;;19.67;13.10;;;;;;;;;;4343429;79;28529;-83
2022/05/15 04:50:20;;;;;;;21.45;13.20;;;;;;;;;;4359690;79;28556;-80
2022/05/15 04:56:21;;;;;;;21.00;12.88;;;;;;;;;;4371157;79;28514;-81
2022/05/15 05:02:22;;;;;;;18.90;12.73;;;;;;;;;;4349314;80;28485;-82
2022/05/15 05:08:23;;;;;;;18.75;13.30;;;;;;;;;;4340930;79;28513;-81
2022/05/15 05:14:24;;;;;;;21.25;12.88;;;;;;;;;;4356841;79;28500;-80
2022/05/15 05:20:25;;;;;;;21.02;14.28;;;;;;;;;;4372304;80;28492;-82
2022/05/15 05:26:26;;;;;;;23.50;13.98;;;;;;;;;;4378350;80;28494;-83
2022/05/15 05:32:28;;;;;;;18.75;13.30;;;;;;;;;;4375119;80;28526;-82
2022/05/15 05:38:28;;;;;;;22.98;14.20;;;;;;;;;;4371152;80;28560;-82
2022/05/15 05:44:30;;;;;;;19.62;12.63;;;;;;;;;;4379711;80;28490;-81
2022/05/15 05:50:30;;;;;;;21.55;13.93;;;;;;;;;;4374459;80;28603;-82
2022/05/15 05:56:31;;;;;;;19.50;13.53;;;;;;;;;;4353216;80;28593;-81
2022/05/15 06:02:32;;;;;;;21.80;13.85;;;;;;;;;;4352491;80;28527;-77
2022/05/15 06:08:33;;;;;;;22.52;13.50;;;;;;;;;;4368380;80;28539;-78
2022/05/15 06:14:34;;;;;;;18.10;11.95;;;;;;;;;;4382892;80;28567;-77
2022/05/15 06:20:35;;;;;;;19.37;11.45;;;;;;;;;;4340215;80;28540;-78
2022/05/15 06:26:36;;;;;;;17.80;11.05;;;;;;;;;;4394986;80;28509;-80
2022/05/15 06:32:39;;;;;;;17.27;11.00;;;;;;;;;;4356047;80;28549;-80
2022/05/15 06:38:42;;;;;;;17.65;10.80;;;;;;;;;;4377259;79;28481;-77
2022/05/15 06:44:43;;;;;;;16.77;10.68;;;;;;;;;;4363631;80;28562;-77
2022/05/15 06:50:49;;;;;;;18.05;10.18;;;;;;;;;;4398694;80;28505;-82
2022/05/15 07:03:10;;;;;;;17.95;9.05;;;;;;;;;;4388147;80;28521;-78
2022/05/15 07:09:11;;;;;;;13.75;7.25;;;;;;;;;;4393198;80;28518;-79
2022/05/15 07:15:12;;;;;;;15.38;7.03;;;;;;;;;;4380273;80;28534;-77
2022/05/15 07:21:13;;;;;;;13.65;6.40;;;;;;;;;;4361161;80;28470;-81
2022/05/15 07:27:14;;;;;;;12.15;4.72;;;;;;;;;;4353452;80;28533;-81
2022/05/15 07:33:20;;;;;;;10.38;4.47;;;;;;;;;;4373314;79;28485;-81
2022/05/15 07:39:21;;;;;;;10.27;4.17;;;;;;;;;;4372419;79;28644;-80
2022/05/15 07:45:22;;;;;;;11.20;4.75;;;;;;;;;;4312698;80;28577;-79
2022/05/15 07:51:22;;;;;;;7.85;3.35;;;;;;;;;;4384861;79;28616;-80
2022/05/15 07:57:23;;;;;;;7.75;3.22;;;;;;;;;;4361083;79;28524;-79
2022/05/15 08:03:24;;;;;;;8.63;3.25;;;;;;;;;;4368026;79;28539;-79
2022/05/15 08:09:25;;;;;;;7.42;3.45;;;;;;;;;;4380580;79;28539;-80
2022/05/15 08:15:27;;;;;;;7.78;3.00;;;;;;;;;;4297920;80;28539;-79
2022/05/15 08:27:47;;;;;;;11.35;3.70;;;;;;;;;;4350728;80;28526;-79
2022/05/15 08:33:48;;;;;;;11.38;3.42;;;;;;;;;;4348880;80;28530;-79
2022/05/15 08:39:50;;;;;;;11.53;3.15;;;;;;;;;;4331468;80;28511;-79
2022/05/15 08:45:53;;;;;;;9.85;3.45;;;;;;;;;;4369047;80;28550;-79
2022/05/15 08:52:10;;;;;;;9.93;3.85;;;;;;;;;;4369605;80;28548;-78
2022/05/15 08:58:13;;;;;;;9.53;3.30;;;;;;;;;;4292082;80;28544;-80
2022/05/15 09:04:14;;;;;;;8.08;3.42;;;;;;;;;;4294333;80;28510;-79
2022/05/15 09:10:18;;;;;;;7.45;2.58;;;;;;;;;;4351271;80;28601;-79
2022/05/15 09:16:23;;;;;;;9.55;2.65;;;;;;;;;;4389942;79;28494;-79
2022/05/15 09:22:26;;;;;;;6.42;2.35;;;;;;;;;;4385235;79;28525;-80
2022/05/15 09:28:27;;;;;;;5.40;2.47;;;;;;;;;;4375104;79;28555;-79
2022/05/15 09:34:33;;;;;;;6.67;2.37;;;;;;;;;;4396557;79;28505;-78
2022/05/15 09:40:38;;;;;;;10.30;2.62;;;;;;;;;;4328820;80;28478;-78
2022/05/15 09:46:40;;;;;;;12.30;3.10;;;;;;;;;;4340361;80;28535;-79
2022/05/15 09:52:42;;;;;;;7.47;2.60;;;;;;;;;;4321708;80;28517;-79
2022/05/15 09:58:46;;;;;;;6.55;2.08;;;;;;;;;;4279540;80;28512;-79
2022/05/15 10:04:48;;;;;;;6.62;2.70;;;;;;;;;;4276026;80;28518;-79
2022/05/15 10:11:03;;;;;;;7.97;2.87;;;;;;;;;;4273162;80;28523;-79
2022/05/15 10:17:05;;;;;;;5.87;2.40;;;;;;;;;;4399947;78;28572;-79
2022/05/15 10:23:08;;;;;;;7.85;2.15;;;;;;;;;;4420419;78;28548;-80
2022/05/15 10:29:29;;;;;;;8.18;2.37;;;;;;;;;;4404585;79;28541;-80
2022/05/15 10:35:48;;;;;;;7.97;2.35;;;;;;;;;;4355817;79;28499;-79
2022/05/15 10:41:51;;;;;;;8.18;2.27;;;;;;;;;;4374722;79;28521;-80
2022/05/15 10:48:12;;;;;;;6.20;1.80;;;;;;;;;;4268127;80;28550;-79
2022/05/15 11:00:45;;;;;;;7.17;2.42;;;;;;;;;;4340107;79;28510;-78
2022/05/15 11:06:50;;;;;;;6.58;2.22;;;;;;;;;;4372293;79;28580;-78
2022/05/15 11:12:54;;;;;;;7.27;2.20;;;;;;;;;;4373249;79;42586;-78
2022/05/15 11:19:10;;;;;;;4.67;2.30;;;;;;;;;;4411330;79;28481;-79
2022/05/15 11:25:24;;;;;;;7.80;2.37;;;;;;;;;;4380909;80;28528;-79
2022/05/15 11:31:30;;;;;;;7.83;2.60;;;;;;;;;;4342674;80;28470;-79
2022/05/15 11:37:38;;;;;;;8.50;2.07;;;;;;;;;;4356055;80;28559;-79
2022/05/15 11:43:44;;;;;;;6.90;2.08;;;;;;;;;;4327382;80;28473;-79
2022/05/15 11:49:59;;;;;;;5.60;2.10;;;;;;;;;;4396812;79;28498;-79
2022/05/15 11:56:02;;;;;;;4.33;1.70;;;;;;;;;;4361348;79;42920;-79
2022/05/15 12:02:05;;;;;;;5.87;1.75;;;;;;;;;;4389100;79;28586;-79
2022/05/15 12:08:20;;;;;;;4.97;2.45;;;;;;;;;;4376766;79;28523;-79
2022/05/15 12:14:29;;;;;;;6.75;1.70;;;;;;;;;;4348089;79;28584;-80
2022/05/15 12:20:30;;;;;;;4.97;1.90;;;;;;;;;;4327031;80;28533;-79
2022/05/15 12:26:45;;;;;;;4.12;1.75;;;;;;;;;;4303623;79;28542;-79
2022/05/15 12:32:48;;;;;;;5.10;1.70;;;;;;;;;;4386812;79;28556;-81
2022/05/15 12:38:52;;;;;;;6.00;1.82;;;;;;;;;;4390676;79;28544;-80
2022/05/15 12:45:00;;;;;;;6.37;1.70;;;;;;;;;;4400569;79;28564;-82
2022/05/15 12:51:03;;;;;;;4.42;1.57;;;;;;;;;;4327626;80;28574;-81
2022/05/15 12:57:07;;;;;;;4.00;1.50;;;;;;;;;;4318653;80;28565;-83
2022/05/15 13:03:09;;;;;;;4.90;1.42;;;;;;;;;;4242477;80;28512;-80
2022/05/15 13:09:12;;;;;;;4.15;1.75;;;;;;;;;;4364448;79;28517;-81
2022/05/15 13:15:13;;;;;;;5.62;1.85;;;;;;;;;;4414398;79;28506;-82
2022/05/15 13:21:16;;;;;;;4.22;1.72;;;;;;;;;;4429174;78;28579;-83
2022/05/15 13:27:17;;;;;;;3.67;1.60;;;;;;;;;;4423028;79;28548;-83
2022/05/15 13:33:22;;;;;;;4.65;1.85;;;;;;;;;;4420749;79;28577;-85
2022/05/15 13:45:48;;;;;;;3.35;1.47;;;;;;;;;;4412120;79;28512;-80
2022/05/15 13:51:52;;;;;;;4.17;1.62;;;;;;;;;;4421748;78;28580;-81
2022/05/15 13:57:54;;;;;;;4.70;1.62;;;;;;;;;;4420827;79;28523;-77
2022/05/15 14:03:56;;;;;;;3.58;1.27;;;;;;;;;;4425667;78;28548;-78
2022/05/15 14:09:59;;;;;;;6.33;1.60;;;;;;;;;;4420609;79;28543;-74
2022/05/15 14:16:01;;;;;;;5.78;1.60;;;;;;;;;;4394463;79;28497;-77
2022/05/15 14:22:04;;;;;;;7.03;1.60;;;;;;;;;;4395993;79;28534;-78
2022/05/15 14:28:08;;;;;;;3.50;1.55;;;;;;;;;;4423310;79;28517;-78
2022/05/15 14:34:09;;;;;;;4.62;1.50;;;;;;;;;;4418786;79;28543;-77
2022/05/15 14:40:10;;;;;;;2.60;1.25;;;;;;;;;;4418765;79;28529;-78
2022/05/15 14:46:13;;;;;;;4.37;2.42;;;;;;;;;;4405817;79;28555;-79
2022/05/15 14:52:16;;;;;;;2.40;1.42;;;;;;;;;;4351098;80;28516;-78
2022/05/15 14:58:17;;;;;;;4.12;1.60;;;;;;;;;;4375191;80;28501;-76
2022/05/15 15:04:18;;;;;;;2.35;1.17;;;;;;;;;;4396512;80;28657;-77
2022/05/15 15:10:21;;;;;;;4.05;1.50;;;;;;;;;;4336056;80;28542;-77
2022/05/15 15:16:24;;;;;;;5.97;1.70;;;;;;;;;;4431105;78;28555;-79
2022/05/15 15:22:26;;;;;;;3.92;1.32;;;;;;;;;;4318518;80;28525;-83
2022/05/15 15:28:27;;;;;;;2.72;1.30;;;;;;;;;;4330414;79;28561;-80
2022/05/15 15:34:28;;;;;;;4.15;1.30;;;;;;;;;;4386387;79;28533;-81
2022/05/15 15:40:30;;;;;;;4.12;1.25;;;;;;;;;;4395083;79;28590;-81
2022/05/15 15:46:31;;;;;;;3.05;1.22;;;;;;;;;;4312842;80;28490;-84
2022/05/15 15:52:33;;;;;;;3.42;1.45;;;;;;;;;;4291251;80;28526;-80
2022/05/15 15:58:34;;;;;;;3.83;1.35;;;;;;;;;;4313373;80;28483;-79
2022/05/15 16:04:35;;;;;;;3.42;1.12;;;;;;;;;;4352968;80;28534;-77
2022/05/15 16:10:37;;;;;;;3.30;1.10;;;;;;;;;;4327641;80;28480;-78
2022/05/15 16:16:38;;;;;;;2.83;1.10;;;;;;;;;;4317777;80;28545;-81
2022/05/15 16:22:40;;;;;;;4.55;1.35;;;;;;;;;;4315168;80;28466;-77
2022/05/15 16:28:41;;;;;;;5.05;1.32;;;;;;;;;;4328563;80;28478;-77
2022/05/15 16:34:42;;;;;;;4.25;1.40;;;;;;;;;;4325907;80;28553;-76
2022/05/15 16:40:45;;;;;;;2.80;1.22;;;;;;;;;;4341403;80;28479;-76
2022/05/15 16:46:46;;;;;;;2.85;1.30;;;;;;;;;;4330863;80;28466;-77
2022/05/15 16:52:49;;;;;;;2.95;1.10;;;;;;;;;;4327778;80;28639;-77
2022/05/15 16:58:50;;;;;;;3.42;1.12;;;;;;;;;;4320141;80;28557;-76
2022/05/15 17:04:51;;;;;;;6.00;1.87;;;;;;;;;;4333185;81;28501;-75
2022/05/15 17:10:52;;;;;;;4.20;1.52;;;;;;;;;;4331437;80;28574;-77
2022/05/15 17:16:54;;;;;;;5.28;1.65;;;;;;;;;;4326256;80;28575;-80
2022/05/15 17:22:55;;;;;;;4.55;1.30;;;;;;;;;;4341927;80;28492;-79
2022/05/15 17:35:17;;;;;;;4.28;1.45;;;;;;;;;;4290851;81;28522;-79
2022/05/15 17:41:18;;;;;;;2.45;1.30;;;;;;;;;;4326744;80;28500;-79
2022/05/15 17:47:19;;;;;;;4.15;1.30;;;;;;;;;;4331223;80;28554;-79
2022/05/15 17:53:20;;;;;;;3.70;1.50;;;;;;;;;;4321741;81;28577;-83
2022/05/15 17:59:21;;;;;;;4.33;1.55;;;;;;;;;;4318560;80;28489;-83
2022/05/15 18:05:23;;;;;;;4.90;1.80;;;;;;;;;;4334090;80;28553;-80
2022/05/15 18:11:24;;;;;;;5.67;1.72;;;;;;;;;;4338919;80;28521;-81
2022/05/15 18:17:27;;;;;;;6.87;1.60;;;;;;;;;;4305377;80;28569;-81
2022/05/15 18:23:28;;;;;;;6.47;1.47;;;;;;;;;;4286680;80;28592;-81
2022/05/15 18:29:29;;;;;;;5.47;2.25;;;;;;;;;;4313030;81;28573;-81
2022/05/15 18:35:31;;;;;;;4.47;1.50;;;;;;;;;;4311316;80;28531;-80
2022/05/15 18:41:37;;;;;;;6.35;2.00;;;;;;;;;;4299895;80;28565;-82
2022/05/15 18:47:37;;;;;;;3.70;1.57;;;;;;;;;;4294358;80;28566;-78
2022/05/15 19:00:01;;;;;;;5.67;2.22;;;;;;;;;;4286534;80;28500;-81
2022/05/15 19:06:02;;;;;;;7.42;2.37;;;;;;;;;;4296020;80;28517;-82
2022/05/15 19:12:04;;;;;;;5.72;1.98;;;;;;;;;;4277287;80;28515;-81
2022/05/15 19:18:05;;;;;;;11.25;2.05;;;;;;;;;;4321952;80;28551;-81
2022/05/15 19:24:06;;;;;;;9.88;1.80;;;;;;;;;;4300862;80;28558;-80
2022/05/15 19:30:09;;;;;;;5.67;1.85;;;;;;;;;;4296012;80;28541;-81
2022/05/15 19:36:10;;;;;;;5.30;1.67;;;;;;;;;;4278387;80;28474;-82
2022/05/15 19:42:11;;;;;;;5.33;1.87;;;;;;;;;;4342183;80;28572;-86
2022/05/15 19:48:13;;;;;;;4.53;1.50;;;;;;;;;;4344070;80;28529;-85
2022/05/15 19:54:14;;;;;;;2.72;1.45;;;;;;;;;;4341882;80;28482;-86
2022/05/15 20:00:16;;;;;;;6.28;1.95;;;;;;;;;;4329258;80;28508;-86
2022/05/15 20:12:37;;;;;;;4.22;1.87;;;;;;;;;;4334954;80;28518;-88
2022/05/15 20:18:38;;;;;;;5.62;2.00;;;;;;;;;;4342015;81;28538;-87
2022/05/15 20:24:39;;;;;;;3.92;1.40;;;;;;;;;;4361372;81;28561;-89
2022/05/15 20:30:40;;;;;;;2.87;1.42;;;;;;;;;;4397505;79;28518;-89
2022/05/15 20:36:41;;;;;;;3.27;1.50;;;;;;;;;;4435459;79;28540;-88
2022/05/15 20:42:41;;;;;;;5.80;1.98;;;;;;;;;;4351112;80;28419;-88
2022/05/15 20:48:44;;;;;;;3.15;1.50;;;;;;;;;;4339402;80;28540;-88
2022/05/15 20:54:45;;;;;;;3.80;1.70;;;;;;;;;;4399544;79;28552;-89
2022/05/15 21:00:46;;;;;;;4.58;1.98;;;;;;;;;;4397669;79;28501;-88
2022/05/15 21:06:49;;;;;;;3.98;1.87;;;;;;;;;;4402376;79;28470;-89
2022/05/15 21:12:52;;;;;;;6.37;2.17;;;;;;;;;;4397681;79;28568;-88
2022/05/15 21:18:53;;;;;;;3.15;1.92;;;;;;;;;;4364608;79;28516;-86
2022/05/15 21:24:53;;;;;;;7.60;2.30;;;;;;;;;;4344474;80;28548;-88
2022/05/15 21:30:54;;;;;;;6.67;2.17;;;;;;;;;;4348465;80;28458;-89
2022/05/15 21:36:56;;;;;;;7.17;1.98;;;;;;;;;;4355355;80;28476;-88
2022/05/15 21:49:16;;;;;;;5.70;2.47;;;;;;;;;;4341485;80;28533;-88
2022/05/15 21:55:17;;;;;;;5.12;2.40;;;;;;;;;;4346978;80;28530;-87
2022/05/15 22:01:18;;;;;;;5.62;2.40;;;;;;;;;;4345449;80;28519;-87
2022/05/15 22:07:24;;;;;;;6.12;2.65;;;;;;;;;;4332205;80;28531;-87
2022/05/15 22:13:24;;;;;;;6.62;2.90;;;;;;;;;;4341048;80;28478;-88
2022/05/15 22:19:25;;;;;;;5.33;2.90;;;;;;;;;;4384840;79;28552;-87
2022/05/15 22:25:26;;;;;;;6.58;2.67;;;;;;;;;;4382861;79;28486;-87
2022/05/15 22:31:27;;;;;;;6.22;2.80;;;;;;;;;;4380671;79;28533;-89
2022/05/15 22:37:29;;;;;;;4.75;2.80;;;;;;;;;;4380678;79;28502;-90
2022/05/15 22:43:30;;;;;;;5.50;2.85;;;;;;;;;;4386792;79;28535;-90
2022/05/15 22:49:31;;;;;;;6.33;2.95;;;;;;;;;;4398756;79;28570;-86
2022/05/15 22:55:32;;;;;;;4.80;2.62;;;;;;;;;;4381063;79;28527;-89
2022/05/15 23:01:33;;;;;;;5.67;2.42;;;;;;;;;;4369633;79;28569;-88
2022/05/15 23:07:35;;;;;;;5.90;2.83;;;;;;;;;;4391386;79;28482;-86
2022/05/15 23:13:36;;;;;;;6.37;2.70;;;;;;;;;;4391656;79;28521;-87
2022/05/15 23:19:37;;;;;;;6.35;2.90;;;;;;;;;;4344114;79;28542;-86
2022/05/15 23:25:38;;;;;;;5.37;2.47;;;;;;;;;;4339259;80;28601;-86
2022/05/15 23:31:39;;;;;;;5.55;2.50;;;;;;;;;;4342353;79;28461;-86
2022/05/15 23:37:40;;;;;;;5.45;2.75;;;;;;;;;;4328877;79;28611;-86
2022/05/15 23:43:41;;;;;;;4.83;2.33;;;;;;;;;;4349783;79;28566;-86
2022/05/15 23:49:44;;;;;;;6.10;2.62;;;;;;;;;;4346943;80;28553;-86
2022/05/15 23:55:45;;;;;;;8.45;2.62;;;;;;;;;;4345845;80;28543;-84
